sensor_id;sensor_type;location;lat;lon;timestamp;P1;durP1;ratioP1;P2;durP2;ratioP2
44228;SDS011;29904;51.058;5.378;2023-10-09T00:00:23;8.57;;;4.20;;
44228;SDS011;29904;51.058;5.378;2023-10-09T00:02:56;7.55;;;4.38;;
44228;SDS011;29904;51.058;5.378;2023-10-09T00:05:29;9.05;;;4.72;;
44228;SDS011;29904;51.058;5.378;2023-10-09T00:08:15;8.25;;;4.05;;
44228;SDS011;29904;51.058;5.378;2023-10-09T00:10:44;10.88;;;4.90;;
44228;SDS011;29904;51.058;5.378;2023-10-09T00:13:30;7.50;;;4.47;;
44228;SDS011;29904;51.058;5.378;2023-10-09T00:16:00;7.50;;;4.25;;
44228;SDS011;29904;51.058;5.378;2023-10-09T00:18:40;6.20;;;4.20;;
44228;SDS011;29904;51.058;5.378;2023-10-09T00:21:14;6.85;;;4.20;;
44228;SDS011;29904;51.058;5.378;2023-10-09T00:23:47;7.25;;;4.45;;
44228;SDS011;29904;51.058;5.378;2023-10-09T00:26:24;8.35;;;4.50;;
44228;SDS011;29904;51.058;5.378;2023-10-09T00:28:50;7.00;;;4.05;;
44228;SDS011;29904;51.058;5.378;2023-10-09T00:31:17;6.70;;;4.50;;
44228;SDS011;29904;51.058;5.378;2023-10-09T00:33:55;9.77;;;4.65;;
44228;SDS011;29904;51.058;5.378;2023-10-09T00:36:26;8.40;;;4.20;;
44228;SDS011;29904;51.058;5.378;2023-10-09T00:38:53;8.13;;;4.50;;
44228;SDS011;29904;51.058;5.378;2023-10-09T00:41:19;9.70;;;4.82;;
44228;SDS011;29904;51.058;5.378;2023-10-09T00:43:47;7.65;;;4.22;;
44228;SDS011;29904;51.058;5.378;2023-10-09T00:46:15;8.07;;;4.45;;
44228;SDS011;29904;51.058;5.378;2023-10-09T00:48:49;7.95;;;4.60;;
44228;SDS011;29904;51.058;5.378;2023-10-09T00:51:23;8.98;;;4.40;;
44228;SDS011;29904;51.058;5.378;2023-10-09T00:53:53;8.23;;;4.50;;
44228;SDS011;29904;51.058;5.378;2023-10-09T00:56:23;7.25;;;4.70;;
44228;SDS011;29904;51.058;5.378;2023-10-09T00:58:58;8.32;;;4.50;;
44228;SDS011;29904;51.058;5.378;2023-10-09T01:01:31;8.95;;;4.68;;
44228;SDS011;29904;51.058;5.378;2023-10-09T01:04:02;8.35;;;4.70;;
44228;SDS011;29904;51.058;5.378;2023-10-09T01:06:43;9.65;;;5.10;;
44228;SDS011;29904;51.058;5.378;2023-10-09T01:09:13;7.60;;;4.45;;
44228;SDS011;29904;51.058;5.378;2023-10-09T01:11:41;8.10;;;4.50;;
44228;SDS011;29904;51.058;5.378;2023-10-09T01:14:14;7.63;;;4.63;;
44228;SDS011;29904;51.058;5.378;2023-10-09T01:16:41;6.97;;;4.60;;
44228;SDS011;29904;51.058;5.378;2023-10-09T01:19:12;7.35;;;4.18;;
44228;SDS011;29904;51.058;5.378;2023-10-09T01:21:50;8.38;;;4.78;;
44228;SDS011;29904;51.058;5.378;2023-10-09T01:24:16;8.30;;;4.43;;
44228;SDS011;29904;51.058;5.378;2023-10-09T01:26:45;9.23;;;4.78;;
44228;SDS011;29904;51.058;5.378;2023-10-09T01:29:12;6.93;;;4.43;;
44228;SDS011;29904;51.058;5.378;2023-10-09T01:31:53;8.13;;;4.70;;
44228;SDS011;29904;51.058;5.378;2023-10-09T01:34:24;7.72;;;4.70;;
44228;SDS011;29904;51.058;5.378;2023-10-09T01:37:19;7.50;;;4.28;;
44228;SDS011;29904;51.058;5.378;2023-10-09T01:39:57;7.13;;;4.40;;
44228;SDS011;29904;51.058;5.378;2023-10-09T01:42:26;7.53;;;4.20;;
44228;SDS011;29904;51.058;5.378;2023-10-09T01:45:10;8.68;;;4.78;;
44228;SDS011;29904;51.058;5.378;2023-10-09T01:47:40;6.97;;;4.18;;
44228;SDS011;29904;51.058;5.378;2023-10-09T01:50:11;6.73;;;4.20;;
44228;SDS011;29904;51.058;5.378;2023-10-09T01:52:45;8.10;;;4.77;;
44228;SDS011;29904;51.058;5.378;2023-10-09T01:55:13;6.97;;;4.38;;
44228;SDS011;29904;51.058;5.378;2023-10-09T01:57:52;8.25;;;4.50;;
44228;SDS011;29904;51.058;5.378;2023-10-09T02:00:18;7.38;;;4.38;;
44228;SDS011;29904;51.058;5.378;2023-10-09T02:02:49;7.97;;;4.40;;
44228;SDS011;29904;51.058;5.378;2023-10-09T02:05:15;8.13;;;4.47;;
44228;SDS011;29904;51.058;5.378;2023-10-09T02:07:43;9.07;;;4.75;;
44228;SDS011;29904;51.058;5.378;2023-10-09T02:10:21;6.63;;;4.28;;
44228;SDS011;29904;51.058;5.378;2023-10-09T02:12:54;8.38;;;4.60;;
44228;SDS011;29904;51.058;5.378;2023-10-09T02:15:28;6.90;;;4.23;;
44228;SDS011;29904;51.058;5.378;2023-10-09T02:18:21;8.57;;;4.90;;
44228;SDS011;29904;51.058;5.378;2023-10-09T02:21:06;7.55;;;4.13;;
44228;SDS011;29904;51.058;5.378;2023-10-09T02:23:33;7.65;;;4.60;;
44228;SDS011;29904;51.058;5.378;2023-10-09T02:26:09;7.77;;;4.50;;
44228;SDS011;29904;51.058;5.378;2023-10-09T02:28:51;8.70;;;4.47;;
44228;SDS011;29904;51.058;5.378;2023-10-09T02:31:39;8.05;;;4.45;;
44228;SDS011;29904;51.058;5.378;2023-10-09T02:34:09;7.72;;;4.45;;
44228;SDS011;29904;51.058;5.378;2023-10-09T02:36:40;8.90;;;4.20;;
44228;SDS011;29904;51.058;5.378;2023-10-09T02:39:07;7.18;;;4.32;;
44228;SDS011;29904;51.058;5.378;2023-10-09T02:41:48;7.25;;;4.25;;
44228;SDS011;29904;51.058;5.378;2023-10-09T02:44:26;7.80;;;4.35;;
44228;SDS011;29904;51.058;5.378;2023-10-09T02:46:55;10.40;;;4.38;;
44228;SDS011;29904;51.058;5.378;2023-10-09T02:49:24;7.05;;;4.10;;
44228;SDS011;29904;51.058;5.378;2023-10-09T02:51:51;6.47;;;4.18;;
44228;SDS011;29904;51.058;5.378;2023-10-09T02:54:20;6.80;;;4.20;;
44228;SDS011;29904;51.058;5.378;2023-10-09T02:56:49;9.23;;;4.60;;
44228;SDS011;29904;51.058;5.378;2023-10-09T02:59:30;8.60;;;4.33;;
44228;SDS011;29904;51.058;5.378;2023-10-09T03:01:58;7.20;;;4.10;;
44228;SDS011;29904;51.058;5.378;2023-10-09T03:04:26;6.80;;;4.13;;
44228;SDS011;29904;51.058;5.378;2023-10-09T03:06:55;8.10;;;4.43;;
44228;SDS011;29904;51.058;5.378;2023-10-09T03:09:24;7.47;;;4.18;;
44228;SDS011;29904;51.058;5.378;2023-10-09T03:11:56;7.25;;;4.30;;
44228;SDS011;29904;51.058;5.378;2023-10-09T03:14:28;7.00;;;4.15;;
44228;SDS011;29904;51.058;5.378;2023-10-09T03:17:06;6.80;;;3.97;;
44228;SDS011;29904;51.058;5.378;2023-10-09T03:19:36;7.47;;;4.33;;
44228;SDS011;29904;51.058;5.378;2023-10-09T03:22:02;7.65;;;3.90;;
44228;SDS011;29904;51.058;5.378;2023-10-09T03:24:29;9.82;;;4.80;;
44228;SDS011;29904;51.058;5.378;2023-10-09T03:26:57;6.53;;;3.92;;
44228;SDS011;29904;51.058;5.378;2023-10-09T03:29:23;7.27;;;4.20;;
44228;SDS011;29904;51.058;5.378;2023-10-09T03:31:49;8.52;;;4.20;;
44228;SDS011;29904;51.058;5.378;2023-10-09T03:34:21;8.63;;;4.40;;
44228;SDS011;29904;51.058;5.378;2023-10-09T03:36:46;8.02;;;4.50;;
44228;SDS011;29904;51.058;5.378;2023-10-09T03:39:16;7.82;;;4.95;;
44228;SDS011;29904;51.058;5.378;2023-10-09T03:42:03;7.22;;;4.50;;
44228;SDS011;29904;51.058;5.378;2023-10-09T03:44:33;9.77;;;5.07;;
44228;SDS011;29904;51.058;5.378;2023-10-09T03:47:06;8.85;;;4.75;;
44228;SDS011;29904;51.058;5.378;2023-10-09T03:49:35;7.55;;;4.40;;
44228;SDS011;29904;51.058;5.378;2023-10-09T03:52:04;7.10;;;4.13;;
44228;SDS011;29904;51.058;5.378;2023-10-09T03:54:33;7.40;;;4.20;;
44228;SDS011;29904;51.058;5.378;2023-10-09T03:57:00;7.03;;;4.30;;
44228;SDS011;29904;51.058;5.378;2023-10-09T03:59:26;10.93;;;4.35;;
44228;SDS011;29904;51.058;5.378;2023-10-09T04:01:56;8.35;;;4.60;;
44228;SDS011;29904;51.058;5.378;2023-10-09T04:04:23;7.00;;;4.25;;
44228;SDS011;29904;51.058;5.378;2023-10-09T04:06:50;8.60;;;4.90;;
44228;SDS011;29904;51.058;5.378;2023-10-09T04:09:18;7.20;;;4.40;;
44228;SDS011;29904;51.058;5.378;2023-10-09T04:11:44;7.30;;;4.20;;
44228;SDS011;29904;51.058;5.378;2023-10-09T04:14:11;8.10;;;4.40;;
44228;SDS011;29904;51.058;5.378;2023-10-09T04:16:48;8.02;;;4.32;;
44228;SDS011;29904;51.058;5.378;2023-10-09T04:19:17;7.82;;;4.80;;
44228;SDS011;29904;51.058;5.378;2023-10-09T04:21:47;8.20;;;4.40;;
44228;SDS011;29904;51.058;5.378;2023-10-09T04:24:13;8.70;;;4.80;;
44228;SDS011;29904;51.058;5.378;2023-10-09T04:26:45;9.60;;;4.88;;
44228;SDS011;29904;51.058;5.378;2023-10-09T04:29:11;9.20;;;5.10;;
44228;SDS011;29904;51.058;5.378;2023-10-09T04:32:00;9.57;;;4.57;;
44228;SDS011;29904;51.058;5.378;2023-10-09T04:34:26;8.98;;;4.63;;
44228;SDS011;29904;51.058;5.378;2023-10-09T04:37:00;8.75;;;4.57;;
44228;SDS011;29904;51.058;5.378;2023-10-09T04:39:39;7.30;;;4.50;;
44228;SDS011;29904;51.058;5.378;2023-10-09T04:42:12;8.60;;;5.00;;
44228;SDS011;29904;51.058;5.378;2023-10-09T04:44:49;8.57;;;4.95;;
44228;SDS011;29904;51.058;5.378;2023-10-09T04:47:27;8.65;;;5.05;;
44228;SDS011;29904;51.058;5.378;2023-10-09T04:50:12;8.97;;;4.50;;
44228;SDS011;29904;51.058;5.378;2023-10-09T04:53:00;9.88;;;5.15;;
44228;SDS011;29904;51.058;5.378;2023-10-09T04:55:41;8.35;;;4.85;;
44228;SDS011;29904;51.058;5.378;2023-10-09T04:58:19;7.90;;;5.00;;
44228;SDS011;29904;51.058;5.378;2023-10-09T05:00:49;8.23;;;4.90;;
44228;SDS011;29904;51.058;5.378;2023-10-09T05:03:29;9.43;;;4.95;;
44228;SDS011;29904;51.058;5.378;2023-10-09T05:06:09;8.77;;;4.88;;
44228;SDS011;29904;51.058;5.378;2023-10-09T05:09:07;9.10;;;5.20;;
44228;SDS011;29904;51.058;5.378;2023-10-09T05:11:34;7.83;;;4.80;;
44228;SDS011;29904;51.058;5.378;2023-10-09T05:14:21;8.67;;;4.90;;
44228;SDS011;29904;51.058;5.378;2023-10-09T05:17:03;9.27;;;4.90;;
44228;SDS011;29904;51.058;5.378;2023-10-09T05:19:32;9.23;;;4.88;;
44228;SDS011;29904;51.058;5.378;2023-10-09T05:22:16;8.15;;;5.03;;
44228;SDS011;29904;51.058;5.378;2023-10-09T05:24:55;8.30;;;4.50;;
44228;SDS011;29904;51.058;5.378;2023-10-09T05:27:21;7.43;;;4.35;;
44228;SDS011;29904;51.058;5.378;2023-10-09T05:30:06;9.98;;;4.70;;
44228;SDS011;29904;51.058;5.378;2023-10-09T05:32:50;7.55;;;4.35;;
44228;SDS011;29904;51.058;5.378;2023-10-09T05:35:23;8.10;;;4.90;;
44228;SDS011;29904;51.058;5.378;2023-10-09T05:38:08;8.20;;;4.68;;
44228;SDS011;29904;51.058;5.378;2023-10-09T05:40:49;9.38;;;4.70;;
44228;SDS011;29904;51.058;5.378;2023-10-09T05:43:19;8.40;;;4.60;;
44228;SDS011;29904;51.058;5.378;2023-10-09T05:46:04;9.18;;;4.80;;
44228;SDS011;29904;51.058;5.378;2023-10-09T05:48:34;9.25;;;5.28;;
44228;SDS011;29904;51.058;5.378;2023-10-09T05:51:04;8.95;;;4.45;;
44228;SDS011;29904;51.058;5.378;2023-10-09T05:53:37;8.95;;;4.85;;
44228;SDS011;29904;51.058;5.378;2023-10-09T05:56:09;8.57;;;5.22;;
44228;SDS011;29904;51.058;5.378;2023-10-09T05:58:54;7.28;;;4.90;;
44228;SDS011;29904;51.058;5.378;2023-10-09T06:01:40;9.53;;;4.77;;
44228;SDS011;29904;51.058;5.378;2023-10-09T06:04:25;8.88;;;4.80;;
44228;SDS011;29904;51.058;5.378;2023-10-09T06:07:19;8.53;;;4.97;;
44228;SDS011;29904;51.058;5.378;2023-10-09T06:09:49;10.48;;;5.38;;
44228;SDS011;29904;51.058;5.378;2023-10-09T06:12:21;9.70;;;5.65;;
44228;SDS011;29904;51.058;5.378;2023-10-09T06:15:14;8.32;;;4.97;;
44228;SDS011;29904;51.058;5.378;2023-10-09T06:17:59;9.77;;;5.35;;
44228;SDS011;29904;51.058;5.378;2023-10-09T06:20:47;9.27;;;5.30;;
44228;SDS011;29904;51.058;5.378;2023-10-09T06:23:55;9.10;;;5.32;;
44228;SDS011;29904;51.058;5.378;2023-10-09T06:26:46;9.93;;;5.27;;
44228;SDS011;29904;51.058;5.378;2023-10-09T06:29:27;9.20;;;5.40;;
44228;SDS011;29904;51.058;5.378;2023-10-09T06:32:04;8.55;;;5.32;;
44228;SDS011;29904;51.058;5.378;2023-10-09T06:34:46;9.18;;;5.13;;
44228;SDS011;29904;51.058;5.378;2023-10-09T06:37:36;7.40;;;4.35;;
44228;SDS011;29904;51.058;5.378;2023-10-09T06:40:22;8.77;;;5.15;;
44228;SDS011;29904;51.058;5.378;2023-10-09T06:43:08;9.17;;;5.47;;
44228;SDS011;29904;51.058;5.378;2023-10-09T06:45:42;9.30;;;5.10;;
44228;SDS011;29904;51.058;5.378;2023-10-09T06:48:13;10.13;;;5.40;;
44228;SDS011;29904;51.058;5.378;2023-10-09T06:51:06;9.25;;;5.38;;
44228;SDS011;29904;51.058;5.378;2023-10-09T06:53:52;7.93;;;4.90;;
44228;SDS011;29904;51.058;5.378;2023-10-09T06:56:22;9.05;;;5.22;;
44228;SDS011;29904;51.058;5.378;2023-10-09T06:58:54;8.45;;;5.03;;
44228;SDS011;29904;51.058;5.378;2023-10-09T07:01:27;9.65;;;5.20;;
44228;SDS011;29904;51.058;5.378;2023-10-09T07:04:02;8.23;;;4.72;;
44228;SDS011;29904;51.058;5.378;2023-10-09T07:06:46;9.80;;;5.30;;
44228;SDS011;29904;51.058;5.378;2023-10-09T07:09:14;7.53;;;4.75;;
44228;SDS011;29904;51.058;5.378;2023-10-09T07:11:43;9.02;;;5.07;;
44228;SDS011;29904;51.058;5.378;2023-10-09T07:14:22;9.50;;;5.10;;
44228;SDS011;29904;51.058;5.378;2023-10-09T07:16:55;9.25;;;4.90;;
44228;SDS011;29904;51.058;5.378;2023-10-09T07:19:28;7.75;;;5.30;;
44228;SDS011;29904;51.058;5.378;2023-10-09T07:22:07;10.50;;;5.55;;
44228;SDS011;29904;51.058;5.378;2023-10-09T07:24:45;8.83;;;5.23;;
44228;SDS011;29904;51.058;5.378;2023-10-09T07:27:19;9.57;;;5.55;;
44228;SDS011;29904;51.058;5.378;2023-10-09T07:30:06;11.80;;;5.57;;
44228;SDS011;29904;51.058;5.378;2023-10-09T07:32:55;9.55;;;5.63;;
44228;SDS011;29904;51.058;5.378;2023-10-09T07:35:33;11.53;;;6.03;;
44228;SDS011;29904;51.058;5.378;2023-10-09T07:38:09;10.07;;;5.47;;
44228;SDS011;29904;51.058;5.378;2023-10-09T07:40:45;11.32;;;5.63;;
44228;SDS011;29904;51.058;5.378;2023-10-09T07:43:20;8.63;;;5.22;;
44228;SDS011;29904;51.058;5.378;2023-10-09T07:46:11;9.55;;;5.13;;
44228;SDS011;29904;51.058;5.378;2023-10-09T07:49:04;12.50;;;5.60;;
44228;SDS011;29904;51.058;5.378;2023-10-09T07:51:34;9.83;;;5.60;;
44228;SDS011;29904;51.058;5.378;2023-10-09T07:54:01;9.57;;;5.25;;
44228;SDS011;29904;51.058;5.378;2023-10-09T07:56:35;8.50;;;5.35;;
44228;SDS011;29904;51.058;5.378;2023-10-09T07:59:06;9.60;;;5.80;;
44228;SDS011;29904;51.058;5.378;2023-10-09T08:01:48;9.95;;;5.35;;
44228;SDS011;29904;51.058;5.378;2023-10-09T08:04:18;9.07;;;5.18;;
44228;SDS011;29904;51.058;5.378;2023-10-09T08:07:02;10.38;;;5.50;;
44228;SDS011;29904;51.058;5.378;2023-10-09T08:09:34;11.02;;;6.18;;
44228;SDS011;29904;51.058;5.378;2023-10-09T08:12:13;8.70;;;5.68;;
44228;SDS011;29904;51.058;5.378;2023-10-09T08:14:58;10.48;;;5.80;;
44228;SDS011;29904;51.058;5.378;2023-10-09T08:17:44;11.05;;;5.75;;
44228;SDS011;29904;51.058;5.378;2023-10-09T08:20:16;9.18;;;5.32;;
44228;SDS011;29904;51.058;5.378;2023-10-09T08:22:42;9.93;;;5.55;;
44228;SDS011;29904;51.058;5.378;2023-10-09T08:25:09;11.07;;;5.90;;
44228;SDS011;29904;51.058;5.378;2023-10-09T08:27:56;11.93;;;6.20;;
44228;SDS011;29904;51.058;5.378;2023-10-09T08:30:45;9.93;;;6.20;;
44228;SDS011;29904;51.058;5.378;2023-10-09T08:33:27;10.90;;;5.77;;
44228;SDS011;29904;51.058;5.378;2023-10-09T08:36:05;10.30;;;5.53;;
44228;SDS011;29904;51.058;5.378;2023-10-09T08:38:33;11.95;;;6.15;;
44228;SDS011;29904;51.058;5.378;2023-10-09T08:41:11;10.20;;;5.88;;
44228;SDS011;29904;51.058;5.378;2023-10-09T08:43:52;11.18;;;6.20;;
44228;SDS011;29904;51.058;5.378;2023-10-09T08:46:25;9.27;;;5.30;;
44228;SDS011;29904;51.058;5.378;2023-10-09T08:48:55;9.65;;;5.65;;
44228;SDS011;29904;51.058;5.378;2023-10-09T08:51:24;10.82;;;6.00;;
44228;SDS011;29904;51.058;5.378;2023-10-09T08:53:51;12.40;;;5.95;;
44228;SDS011;29904;51.058;5.378;2023-10-09T08:56:17;11.13;;;6.15;;
44228;SDS011;29904;51.058;5.378;2023-10-09T08:58:58;12.25;;;6.13;;
44228;SDS011;29904;51.058;5.378;2023-10-09T09:01:27;14.20;;;6.60;;
44228;SDS011;29904;51.058;5.378;2023-10-09T09:03:57;11.63;;;5.38;;
44228;SDS011;29904;51.058;5.378;2023-10-09T09:06:35;11.13;;;6.23;;
44228;SDS011;29904;51.058;5.378;2023-10-09T09:09:10;9.10;;;5.60;;
44228;SDS011;29904;51.058;5.378;2023-10-09T09:11:40;12.02;;;6.20;;
44228;SDS011;29904;51.058;5.378;2023-10-09T09:14:17;10.90;;;5.97;;
44228;SDS011;29904;51.058;5.378;2023-10-09T09:16:47;11.25;;;5.80;;
44228;SDS011;29904;51.058;5.378;2023-10-09T09:19:17;13.27;;;5.67;;
44228;SDS011;29904;51.058;5.378;2023-10-09T09:21:56;8.82;;;5.32;;
44228;SDS011;29904;51.058;5.378;2023-10-09T09:24:24;10.57;;;5.85;;
44228;SDS011;29904;51.058;5.378;2023-10-09T09:26:50;11.63;;;6.10;;
44228;SDS011;29904;51.058;5.378;2023-10-09T09:29:43;10.70;;;5.97;;
44228;SDS011;29904;51.058;5.378;2023-10-09T09:32:17;12.68;;;5.90;;
44228;SDS011;29904;51.058;5.378;2023-10-09T09:35:00;11.75;;;6.25;;
44228;SDS011;29904;51.058;5.378;2023-10-09T09:37:32;12.32;;;6.50;;
44228;SDS011;29904;51.058;5.378;2023-10-09T09:40:04;9.63;;;5.78;;
44228;SDS011;29904;51.058;5.378;2023-10-09T09:42:56;9.05;;;5.50;;
44228;SDS011;29904;51.058;5.378;2023-10-09T09:45:37;9.07;;;5.47;;
44228;SDS011;29904;51.058;5.378;2023-10-09T09:48:11;9.45;;;5.65;;
44228;SDS011;29904;51.058;5.378;2023-10-09T09:50:41;11.13;;;5.93;;
44228;SDS011;29904;51.058;5.378;2023-10-09T09:53:13;9.02;;;5.85;;
44228;SDS011;29904;51.058;5.378;2023-10-09T09:56:00;9.32;;;5.38;;
44228;SDS011;29904;51.058;5.378;2023-10-09T09:58:29;10.52;;;5.80;;
44228;SDS011;29904;51.058;5.378;2023-10-09T10:01:07;10.77;;;5.35;;
44228;SDS011;29904;51.058;5.378;2023-10-09T10:03:42;9.65;;;5.68;;
44228;SDS011;29904;51.058;5.378;2023-10-09T10:06:12;9.83;;;5.50;;
44228;SDS011;29904;51.058;5.378;2023-10-09T10:08:42;10.05;;;6.10;;
44228;SDS011;29904;51.058;5.378;2023-10-09T10:11:08;8.47;;;5.00;;
44228;SDS011;29904;51.058;5.378;2023-10-09T10:14:07;11.45;;;5.45;;
44228;SDS011;29904;51.058;5.378;2023-10-09T10:17:10;9.20;;;5.05;;
44228;SDS011;29904;51.058;5.378;2023-10-09T10:22:26;9.65;;;4.82;;
44228;SDS011;29904;51.058;5.378;2023-10-09T10:24:58;9.50;;;4.53;;
44228;SDS011;29904;51.058;5.378;2023-10-09T10:27:27;7.82;;;4.75;;
44228;SDS011;29904;51.058;5.378;2023-10-09T10:35:17;10.77;;;5.07;;
44228;SDS011;29904;51.058;5.378;2023-10-09T10:37:57;9.68;;;5.10;;
44228;SDS011;29904;51.058;5.378;2023-10-09T10:40:49;8.37;;;4.50;;
44228;SDS011;29904;51.058;5.378;2023-10-09T10:43:23;10.13;;;4.43;;
44228;SDS011;29904;51.058;5.378;2023-10-09T10:46:08;8.95;;;4.50;;
44228;SDS011;29904;51.058;5.378;2023-10-09T10:48:49;9.23;;;4.45;;
44228;SDS011;29904;51.058;5.378;2023-10-09T10:51:36;8.95;;;4.78;;
44228;SDS011;29904;51.058;5.378;2023-10-09T10:54:04;8.50;;;4.15;;
44228;SDS011;29904;51.058;5.378;2023-10-09T10:56:49;8.88;;;4.60;;
44228;SDS011;29904;51.058;5.378;2023-10-09T10:59:15;8.90;;;4.40;;
44228;SDS011;29904;51.058;5.378;2023-10-09T11:01:48;8.05;;;4.45;;
44228;SDS011;29904;51.058;5.378;2023-10-09T11:04:26;9.23;;;4.25;;
44228;SDS011;29904;51.058;5.378;2023-10-09T11:07:09;8.68;;;4.18;;
44228;SDS011;29904;51.058;5.378;2023-10-09T11:10:02;9.50;;;4.63;;
44228;SDS011;29904;51.058;5.378;2023-10-09T11:12:30;7.50;;;4.00;;
44228;SDS011;29904;51.058;5.378;2023-10-09T11:15:07;7.35;;;4.28;;
44228;SDS011;29904;51.058;5.378;2023-10-09T11:18:00;7.22;;;4.07;;
44228;SDS011;29904;51.058;5.378;2023-10-09T11:20:42;8.43;;;4.20;;
44228;SDS011;29904;51.058;5.378;2023-10-09T11:23:22;9.30;;;4.35;;
44228;SDS011;29904;51.058;5.378;2023-10-09T11:25:59;8.63;;;4.00;;
44228;SDS011;29904;51.058;5.378;2023-10-09T11:28:44;8.50;;;4.28;;
44228;SDS011;29904;51.058;5.378;2023-10-09T11:31:23;9.18;;;4.93;;
44228;SDS011;29904;51.058;5.378;2023-10-09T11:33:52;9.10;;;4.53;;
44228;SDS011;29904;51.058;5.378;2023-10-09T11:36:19;9.48;;;4.70;;
44228;SDS011;29904;51.058;5.378;2023-10-09T11:38:56;9.10;;;4.65;;
44228;SDS011;29904;51.058;5.378;2023-10-09T11:41:43;11.02;;;5.10;;
44228;SDS011;29904;51.058;5.378;2023-10-09T11:44:14;8.60;;;4.90;;
44228;SDS011;29904;51.058;5.378;2023-10-09T11:46:59;8.90;;;4.22;;
44228;SDS011;29904;51.058;5.378;2023-10-09T11:49:50;7.70;;;4.05;;
44228;SDS011;29904;51.058;5.378;2023-10-09T11:52:26;7.50;;;4.05;;
44228;SDS011;29904;51.058;5.378;2023-10-09T11:55:21;8.73;;;4.15;;
44228;SDS011;29904;51.058;5.378;2023-10-09T11:57:51;8.43;;;4.22;;
44228;SDS011;29904;51.058;5.378;2023-10-09T12:00:16;7.80;;;4.03;;
44228;SDS011;29904;51.058;5.378;2023-10-09T12:02:54;8.25;;;4.60;;
44228;SDS011;29904;51.058;5.378;2023-10-09T12:05:21;6.70;;;4.17;;
44228;SDS011;29904;51.058;5.378;2023-10-09T12:07:48;7.63;;;4.07;;
44228;SDS011;29904;51.058;5.378;2023-10-09T12:10:22;7.30;;;3.97;;
44228;SDS011;29904;51.058;5.378;2023-10-09T12:12:54;7.88;;;4.18;;
44228;SDS011;29904;51.058;5.378;2023-10-09T12:15:23;10.37;;;4.20;;
44228;SDS011;29904;51.058;5.378;2023-10-09T12:18:01;9.00;;;3.95;;
44228;SDS011;29904;51.058;5.378;2023-10-09T12:20:34;8.00;;;4.32;;
44228;SDS011;29904;51.058;5.378;2023-10-09T12:23:01;9.45;;;4.50;;
44228;SDS011;29904;51.058;5.378;2023-10-09T12:25:31;6.85;;;4.22;;
44228;SDS011;29904;51.058;5.378;2023-10-09T12:27:58;7.47;;;4.53;;
44228;SDS011;29904;51.058;5.378;2023-10-09T12:30:27;6.75;;;3.90;;
44228;SDS011;29904;51.058;5.378;2023-10-09T12:32:54;7.50;;;4.10;;
44228;SDS011;29904;51.058;5.378;2023-10-09T12:35:22;8.25;;;4.40;;
44228;SDS011;29904;51.058;5.378;2023-10-09T12:37:51;9.10;;;4.10;;
44228;SDS011;29904;51.058;5.378;2023-10-09T12:40:24;7.90;;;4.00;;
44228;SDS011;29904;51.058;5.378;2023-10-09T12:42:52;9.60;;;4.25;;
44228;SDS011;29904;51.058;5.378;2023-10-09T12:45:19;6.57;;;3.75;;
44228;SDS011;29904;51.058;5.378;2023-10-09T12:47:51;8.20;;;4.60;;
44228;SDS011;29904;51.058;5.378;2023-10-09T12:50:18;7.35;;;3.90;;
44228;SDS011;29904;51.058;5.378;2023-10-09T12:52:56;9.38;;;4.60;;
44228;SDS011;29904;51.058;5.378;2023-10-09T12:55:23;9.52;;;4.57;;
44228;SDS011;29904;51.058;5.378;2023-10-09T12:57:57;7.38;;;4.28;;
44228;SDS011;29904;51.058;5.378;2023-10-09T13:00:26;8.13;;;4.38;;
44228;SDS011;29904;51.058;5.378;2023-10-09T13:02:52;8.65;;;4.53;;
44228;SDS011;29904;51.058;5.378;2023-10-09T13:05:18;7.95;;;4.30;;
44228;SDS011;29904;51.058;5.378;2023-10-09T13:07:52;7.45;;;4.38;;
44228;SDS011;29904;51.058;5.378;2023-10-09T13:10:23;9.40;;;4.28;;
44228;SDS011;29904;51.058;5.378;2023-10-09T13:12:49;8.25;;;4.18;;
44228;SDS011;29904;51.058;5.378;2023-10-09T13:15:20;7.60;;;4.18;;
44228;SDS011;29904;51.058;5.378;2023-10-09T13:17:46;10.20;;;4.88;;
44228;SDS011;29904;51.058;5.378;2023-10-09T13:20:12;8.57;;;4.32;;
44228;SDS011;29904;51.058;5.378;2023-10-09T13:22:38;7.60;;;4.05;;
44228;SDS011;29904;51.058;5.378;2023-10-09T13:25:06;7.38;;;4.03;;
44228;SDS011;29904;51.058;5.378;2023-10-09T13:27:40;7.82;;;4.50;;
44228;SDS011;29904;51.058;5.378;2023-10-09T13:30:16;8.18;;;4.28;;
44228;SDS011;29904;51.058;5.378;2023-10-09T13:32:50;7.97;;;4.20;;
44228;SDS011;29904;51.058;5.378;2023-10-09T13:35:16;8.23;;;4.85;;
44228;SDS011;29904;51.058;5.378;2023-10-09T13:37:44;8.40;;;4.80;;
44228;SDS011;29904;51.058;5.378;2023-10-09T13:40:19;8.07;;;5.00;;
44228;SDS011;29904;51.058;5.378;2023-10-09T13:42:54;8.02;;;4.80;;
44228;SDS011;29904;51.058;5.378;2023-10-09T13:45:27;8.85;;;4.82;;
44228;SDS011;29904;51.058;5.378;2023-10-09T13:47:56;8.13;;;4.45;;
44228;SDS011;29904;51.058;5.378;2023-10-09T13:50:25;9.48;;;4.70;;
44228;SDS011;29904;51.058;5.378;2023-10-09T13:52:58;9.18;;;4.88;;
44228;SDS011;29904;51.058;5.378;2023-10-09T13:55:26;11.43;;;6.03;;
44228;SDS011;29904;51.058;5.378;2023-10-09T13:57:57;9.73;;;5.40;;
44228;SDS011;29904;51.058;5.378;2023-10-09T14:00:23;9.35;;;5.10;;
44228;SDS011;29904;51.058;5.378;2023-10-09T14:03:00;8.52;;;4.70;;
44228;SDS011;29904;51.058;5.378;2023-10-09T14:05:36;11.35;;;5.50;;
44228;SDS011;29904;51.058;5.378;2023-10-09T14:08:17;11.23;;;5.70;;
44228;SDS011;29904;51.058;5.378;2023-10-09T14:10:47;9.52;;;5.10;;
44228;SDS011;29904;51.058;5.378;2023-10-09T14:13:16;9.32;;;4.90;;
44228;SDS011;29904;51.058;5.378;2023-10-09T14:15:51;9.65;;;4.70;;
44228;SDS011;29904;51.058;5.378;2023-10-09T14:18:19;9.82;;;5.50;;
44228;SDS011;29904;51.058;5.378;2023-10-09T14:20:46;9.80;;;5.57;;
44228;SDS011;29904;51.058;5.378;2023-10-09T14:23:12;10.17;;;5.67;;
44228;SDS011;29904;51.058;5.378;2023-10-09T14:25:45;10.50;;;5.00;;
44228;SDS011;29904;51.058;5.378;2023-10-09T14:28:14;9.98;;;5.65;;
44228;SDS011;29904;51.058;5.378;2023-10-09T14:30:44;9.63;;;4.97;;
44228;SDS011;29904;51.058;5.378;2023-10-09T14:33:14;10.68;;;5.68;;
44228;SDS011;29904;51.058;5.378;2023-10-09T14:35:47;8.53;;;5.30;;
44228;SDS011;29904;51.058;5.378;2023-10-09T14:38:13;9.13;;;5.20;;
44228;SDS011;29904;51.058;5.378;2023-10-09T14:40:47;10.70;;;5.75;;
44228;SDS011;29904;51.058;5.378;2023-10-09T14:43:15;9.73;;;5.47;;
44228;SDS011;29904;51.058;5.378;2023-10-09T14:45:50;9.20;;;5.68;;
44228;SDS011;29904;51.058;5.378;2023-10-09T14:48:18;10.00;;;5.90;;
44228;SDS011;29904;51.058;5.378;2023-10-09T14:50:51;10.57;;;5.47;;
44228;SDS011;29904;51.058;5.378;2023-10-09T14:53:23;11.35;;;5.95;;
44228;SDS011;29904;51.058;5.378;2023-10-09T14:55:58;9.90;;;6.00;;
44228;SDS011;29904;51.058;5.378;2023-10-09T14:58:28;8.48;;;5.40;;
44228;SDS011;29904;51.058;5.378;2023-10-09T15:00:55;9.70;;;5.07;;
44228;SDS011;29904;51.058;5.378;2023-10-09T15:03:21;10.67;;;5.60;;
44228;SDS011;29904;51.058;5.378;2023-10-09T15:05:49;12.53;;;5.07;;
44228;SDS011;29904;51.058;5.378;2023-10-09T15:08:15;9.20;;;5.00;;
44228;SDS011;29904;51.058;5.378;2023-10-09T15:10:47;8.97;;;5.20;;
44228;SDS011;29904;51.058;5.378;2023-10-09T15:13:14;9.60;;;5.35;;
44228;SDS011;29904;51.058;5.378;2023-10-09T15:15:43;10.48;;;5.18;;
44228;SDS011;29904;51.058;5.378;2023-10-09T15:18:10;9.63;;;5.33;;
44228;SDS011;29904;51.058;5.378;2023-10-09T15:20:38;11.48;;;5.20;;
44228;SDS011;29904;51.058;5.378;2023-10-09T15:23:07;10.25;;;5.22;;
44228;SDS011;29904;51.058;5.378;2023-10-09T15:25:34;10.05;;;5.25;;
44228;SDS011;29904;51.058;5.378;2023-10-09T15:28:07;8.23;;;4.75;;
44228;SDS011;29904;51.058;5.378;2023-10-09T15:30:34;9.90;;;5.97;;
44228;SDS011;29904;51.058;5.378;2023-10-09T15:33:04;10.43;;;5.80;;
44228;SDS011;29904;51.058;5.378;2023-10-09T15:35:30;9.85;;;5.68;;